sensor_id;sensor_type;location;lat;lon;timestamp;temperature;humidity
56137;DHT22;42008;52.934;5.884;2023-02-11T00:01:31;6.00;26.40
56137;DHT22;42008;52.934;5.884;2023-02-11T00:03:57;5.60;99.80
56137;DHT22;42008;52.934;5.884;2023-02-11T00:06:27;5.40;60.00
56137;DHT22;42008;52.934;5.884;2023-02-11T00:08:53;5.80;58.60
56137;DHT22;42008;52.934;5.884;2023-02-11T00:11:20;5.90;98.90
56137;DHT22;42008;52.934;5.884;2023-02-11T00:13:46;6.30;84.60
56137;DHT22;42008;52.934;5.884;2023-02-11T00:16:15;6.10;98.60
56137;DHT22;42008;52.934;5.884;2023-02-11T00:18:41;5.90;99.90
56137;DHT22;42008;52.934;5.884;2023-02-11T00:21:13;5.30;99.90
56137;DHT22;42008;52.934;5.884;2023-02-11T00:23:39;5.10;99.90
56137;DHT22;42008;52.934;5.884;2023-02-11T00:26:14;4.60;99.90
56137;DHT22;42008;52.934;5.884;2023-02-11T00:28:41;4.60;99.90
56137;DHT22;42008;52.934;5.884;2023-02-11T00:31:06;5.20;99.90
56137;DHT22;42008;52.934;5.884;2023-02-11T00:33:32;5.80;99.90
56137;DHT22;42008;52.934;5.884;2023-02-11T00:35:57;4.70;99.90
56137;DHT22;42008;52.934;5.884;2023-02-11T00:38:27;6.00;99.90
56137;DHT22;42008;52.934;5.884;2023-02-11T00:40:53;5.50;99.90
56137;DHT22;42008;52.934;5.884;2023-02-11T00:43:18;5.00;99.90
56137;DHT22;42008;52.934;5.884;2023-02-11T00:45:44;5.60;99.90
56137;DHT22;42008;52.934;5.884;2023-02-11T00:48:09;4.50;1.00
56137;DHT22;42008;52.934;5.884;2023-02-11T00:50:35;5.60;1.00
56137;DHT22;42008;52.934;5.884;2023-02-11T00:53:00;4.80;1.00
56137;DHT22;42008;52.934;5.884;2023-02-11T00:55:26;5.30;1.00
56137;DHT22;42008;52.934;5.884;2023-02-11T00:57:51;5.40;1.00
56137;DHT22;42008;52.934;5.884;2023-02-11T01:00:17;5.70;1.00
56137;DHT22;42008;52.934;5.884;2023-02-11T01:02:43;4.80;1.00
56137;DHT22;42008;52.934;5.884;2023-02-11T01:05:08;4.80;99.90
56137;DHT22;42008;52.934;5.884;2023-02-11T01:07:34;4.80;99.90
56137;DHT22;42008;52.934;5.884;2023-02-11T01:09:59;4.10;1.00
56137;DHT22;42008;52.934;5.884;2023-02-11T01:12:25;5.60;1.00
56137;DHT22;42008;52.934;5.884;2023-02-11T01:14:50;5.80;1.00
56137;DHT22;42008;52.934;5.884;2023-02-11T01:17:16;4.60;19.70
56137;DHT22;42008;52.934;5.884;2023-02-11T01:19:42;5.70;99.90
56137;DHT22;42008;52.934;5.884;2023-02-11T01:22:07;4.90;99.90
56137;DHT22;42008;52.934;5.884;2023-02-11T01:24:33;6.20;72.70
56137;DHT22;42008;52.934;5.884;2023-02-11T01:26:58;6.10;1.00
56137;DHT22;42008;52.934;5.884;2023-02-11T01:29:24;6.30;9.60
56137;DHT22;42008;52.934;5.884;2023-02-11T01:31:49;6.20;1.00
56137;DHT22;42008;52.934;5.884;2023-02-11T01:34:15;5.50;1.00
56137;DHT22;42008;52.934;5.884;2023-02-11T01:36:41;5.20;1.00
56137;DHT22;42008;52.934;5.884;2023-02-11T01:39:07;5.70;1.00
56137;DHT22;42008;52.934;5.884;2023-02-11T01:41:35;5.50;1.00
56137;DHT22;42008;52.934;5.884;2023-02-11T01:44:21;6.00;1.00
56137;DHT22;42008;52.934;5.884;2023-02-11T01:46:47;6.60;1.00
56137;DHT22;42008;52.934;5.884;2023-02-11T01:49:17;5.70;1.00
56137;DHT22;42008;52.934;5.884;2023-02-11T01:51:51;5.90;1.00
56137;DHT22;42008;52.934;5.884;2023-02-11T01:54:23;6.40;1.00
56137;DHT22;42008;52.934;5.884;2023-02-11T01:57:10;6.00;1.00
56137;DHT22;42008;52.934;5.884;2023-02-11T02:02:16;6.10;1.00
56137;DHT22;42008;52.934;5.884;2023-02-11T02:05:02;5.00;1.00
56137;DHT22;42008;52.934;5.884;2023-02-11T02:07:36;5.90;1.00
56137;DHT22;42008;52.934;5.884;2023-02-11T02:10:09;6.30;3.80
56137;DHT22;42008;52.934;5.884;2023-02-11T02:12:36;6.00;7.00
56137;DHT22;42008;52.934;5.884;2023-02-11T02:18:21;5.70;18.20
56137;DHT22;42008;52.934;5.884;2023-02-11T02:29:46;5.10;99.90
56137;DHT22;42008;52.934;5.884;2023-02-11T02:35:08;5.50;99.90
56137;DHT22;42008;52.934;5.884;2023-02-11T02:37:46;5.50;99.90
56137;DHT22;42008;52.934;5.884;2023-02-11T02:40:18;5.20;99.90
56137;DHT22;42008;52.934;5.884;2023-02-11T02:42:45;4.80;99.90
56137;DHT22;42008;52.934;5.884;2023-02-11T02:45:12;5.90;99.90
56137;DHT22;42008;52.934;5.884;2023-02-11T02:47:38;4.60;99.90
56137;DHT22;42008;52.934;5.884;2023-02-11T02:50:05;5.60;99.90
56137;DHT22;42008;52.934;5.884;2023-02-11T02:55:36;5.00;99.90
56137;DHT22;42008;52.934;5.884;2023-02-11T03:01:01;5.90;1.00
56137;DHT22;42008;52.934;5.884;2023-02-11T03:03:45;4.80;1.00
56137;DHT22;42008;52.934;5.884;2023-02-11T03:06:33;4.80;1.00
56137;DHT22;42008;52.934;5.884;2023-02-11T03:09:10;4.90;10.50
56137;DHT22;42008;52.934;5.884;2023-02-11T03:11:37;5.60;1.00
56137;DHT22;42008;52.934;5.884;2023-02-11T03:14:07;6.00;32.80
56137;DHT22;42008;52.934;5.884;2023-02-11T03:16:34;5.50;8.10
56137;DHT22;42008;52.934;5.884;2023-02-11T03:19:11;5.80;52.60
56137;DHT22;42008;52.934;5.884;2023-02-11T03:21:38;5.90;62.40
56137;DHT22;42008;52.934;5.884;2023-02-11T03:24:07;5.10;91.00
56137;DHT22;42008;52.934;5.884;2023-02-11T03:26:39;6.00;99.90
56137;DHT22;42008;52.934;5.884;2023-02-11T03:29:32;6.20;99.90
56137;DHT22;42008;52.934;5.884;2023-02-11T03:32:04;4.80;99.90
56137;DHT22;42008;52.934;5.884;2023-02-11T03:34:46;6.30;99.90
56137;DHT22;42008;52.934;5.884;2023-02-11T03:40:14;5.00;94.40
56137;DHT22;42008;52.934;5.884;2023-02-11T03:42:51;5.50;99.90
56137;DHT22;42008;52.934;5.884;2023-02-11T03:45:21;5.20;99.90
56137;DHT22;42008;52.934;5.884;2023-02-11T03:47:54;5.50;95.40
56137;DHT22;42008;52.934;5.884;2023-02-11T03:50:22;4.80;96.70
56137;DHT22;42008;52.934;5.884;2023-02-11T03:52:49;4.60;98.80
56137;DHT22;42008;52.934;5.884;2023-02-11T03:55:17;5.60;45.10
56137;DHT22;42008;52.934;5.884;2023-02-11T03:57:43;5.00;91.60
56137;DHT22;42008;52.934;5.884;2023-02-11T04:00:10;5.50;77.20
56137;DHT22;42008;52.934;5.884;2023-02-11T04:02:37;4.90;99.40
56137;DHT22;42008;52.934;5.884;2023-02-11T04:05:04;5.30;99.30
56137;DHT22;42008;52.934;5.884;2023-02-11T04:07:31;5.90;86.50
56137;DHT22;42008;52.934;5.884;2023-02-11T04:09:56;5.10;77.10
56137;DHT22;42008;52.934;5.884;2023-02-11T04:12:22;5.30;72.60
56137;DHT22;42008;52.934;5.884;2023-02-11T04:14:47;5.60;9.20
56137;DHT22;42008;52.934;5.884;2023-02-11T04:17:13;5.10;92.50
56137;DHT22;42008;52.934;5.884;2023-02-11T04:19:39;5.90;89.40
56137;DHT22;42008;52.934;5.884;2023-02-11T04:22:04;4.80;99.90
56137;DHT22;42008;52.934;5.884;2023-02-11T04:24:30;6.00;99.90
56137;DHT22;42008;52.934;5.884;2023-02-11T04:26:56;6.50;99.90
56137;DHT22;42008;52.934;5.884;2023-02-11T04:29:22;5.50;99.90
56137;DHT22;42008;52.934;5.884;2023-02-11T04:31:47;5.70;99.90
56137;DHT22;42008;52.934;5.884;2023-02-11T04:34:13;6.30;99.90
56137;DHT22;42008;52.934;5.884;2023-02-11T04:36:39;5.90;99.90
56137;DHT22;42008;52.934;5.884;2023-02-11T04:39:05;6.30;99.90
56137;DHT22;42008;52.934;5.884;2023-02-11T04:41:30;6.10;99.90
56137;DHT22;42008;52.934;5.884;2023-02-11T04:43:56;6.20;99.90
56137;DHT22;42008;52.934;5.884;2023-02-11T04:46:21;5.90;99.90
56137;DHT22;42008;52.934;5.884;2023-02-11T04:48:47;6.30;99.90
56137;DHT22;42008;52.934;5.884;2023-02-11T04:51:12;6.10;99.90
56137;DHT22;42008;52.934;5.884;2023-02-11T04:53:38;6.90;99.90
56137;DHT22;42008;52.934;5.884;2023-02-11T04:56:04;5.60;99.90
56137;DHT22;42008;52.934;5.884;2023-02-11T04:58:29;5.80;99.90
56137;DHT22;42008;52.934;5.884;2023-02-11T05:00:55;6.60;99.90
56137;DHT22;42008;52.934;5.884;2023-02-11T05:03:21;6.40;99.90
56137;DHT22;42008;52.934;5.884;2023-02-11T05:05:46;7.00;99.90
56137;DHT22;42008;52.934;5.884;2023-02-11T05:08:12;6.30;99.90
56137;DHT22;42008;52.934;5.884;2023-02-11T05:10:38;6.30;99.90
56137;DHT22;42008;52.934;5.884;2023-02-11T05:13:04;6.90;99.90
56137;DHT22;42008;52.934;5.884;2023-02-11T05:15:29;6.20;99.90
56137;DHT22;42008;52.934;5.884;2023-02-11T05:17:55;6.00;99.90
56137;DHT22;42008;52.934;5.884;2023-02-11T05:20:21;6.30;99.90
56137;DHT22;42008;52.934;5.884;2023-02-11T05:22:47;7.60;99.90
56137;DHT22;42008;52.934;5.884;2023-02-11T05:25:13;5.80;99.90
56137;DHT22;42008;52.934;5.884;2023-02-11T05:27:38;7.00;99.90
56137;DHT22;42008;52.934;5.884;2023-02-11T05:30:05;5.50;99.90
56137;DHT22;42008;52.934;5.884;2023-02-11T05:32:30;6.40;99.90
56137;DHT22;42008;52.934;5.884;2023-02-11T05:34:56;7.10;99.90
56137;DHT22;42008;52.934;5.884;2023-02-11T05:37:22;6.10;99.90
56137;DHT22;42008;52.934;5.884;2023-02-11T05:39:47;6.00;99.90
56137;DHT22;42008;52.934;5.884;2023-02-11T05:42:13;6.50;99.90
56137;DHT22;42008;52.934;5.884;2023-02-11T05:44:39;6.50;99.90
56137;DHT22;42008;52.934;5.884;2023-02-11T05:47:06;6.00;99.90
56137;DHT22;42008;52.934;5.884;2023-02-11T05:49:33;6.00;99.90
56137;DHT22;42008;52.934;5.884;2023-02-11T05:51:59;7.50;99.90
56137;DHT22;42008;52.934;5.884;2023-02-11T05:54:24;6.70;99.90
56137;DHT22;42008;52.934;5.884;2023-02-11T05:56:50;6.80;99.90
56137;DHT22;42008;52.934;5.884;2023-02-11T05:59:15;6.90;99.90
56137;DHT22;42008;52.934;5.884;2023-02-11T06:01:41;6.20;99.90
56137;DHT22;42008;52.934;5.884;2023-02-11T06:04:07;6.90;99.90
56137;DHT22;42008;52.934;5.884;2023-02-11T06:06:33;7.20;99.90
56137;DHT22;42008;52.934;5.884;2023-02-11T06:08:58;6.60;99.90
56137;DHT22;42008;52.934;5.884;2023-02-11T06:11:24;6.20;99.90
56137;DHT22;42008;52.934;5.884;2023-02-11T06:13:50;5.90;99.90
56137;DHT22;42008;52.934;5.884;2023-02-11T06:16:15;6.60;99.90
56137;DHT22;42008;52.934;5.884;2023-02-11T06:18:41;6.50;99.90
56137;DHT22;42008;52.934;5.884;2023-02-11T06:21:08;7.10;99.90
56137;DHT22;42008;52.934;5.884;2023-02-11T06:23:34;7.00;99.90
56137;DHT22;42008;52.934;5.884;2023-02-11T06:26:05;7.20;99.90
56137;DHT22;42008;52.934;5.884;2023-02-11T06:28:32;7.60;99.90
56137;DHT22;42008;52.934;5.884;2023-02-11T06:31:03;7.70;99.90
56137;DHT22;42008;52.934;5.884;2023-02-11T06:33:31;6.50;99.90
56137;DHT22;42008;52.934;5.884;2023-02-11T06:35:56;7.60;99.90
56137;DHT22;42008;52.934;5.884;2023-02-11T06:38:22;7.40;99.90
56137;DHT22;42008;52.934;5.884;2023-02-11T06:40:48;7.90;1.00
56137;DHT22;42008;52.934;5.884;2023-02-11T06:43:13;7.60;1.00
56137;DHT22;42008;52.934;5.884;2023-02-11T06:45:39;7.20;1.00
56137;DHT22;42008;52.934;5.884;2023-02-11T06:48:04;7.90;1.00
56137;DHT22;42008;52.934;5.884;2023-02-11T06:50:30;8.10;1.00
56137;DHT22;42008;52.934;5.884;2023-02-11T06:52:58;7.00;1.00
56137;DHT22;42008;52.934;5.884;2023-02-11T06:55:23;6.50;1.00
56137;DHT22;42008;52.934;5.884;2023-02-11T06:57:49;7.80;1.00
56137;DHT22;42008;52.934;5.884;2023-02-11T07:00:15;7.20;99.90
56137;DHT22;42008;52.934;5.884;2023-02-11T07:02:40;7.30;99.90
56137;DHT22;42008;52.934;5.884;2023-02-11T07:05:06;7.60;99.90
56137;DHT22;42008;52.934;5.884;2023-02-11T07:07:32;7.10;99.90
56137;DHT22;42008;52.934;5.884;2023-02-11T07:09:58;8.10;99.90
56137;DHT22;42008;52.934;5.884;2023-02-11T07:12:23;8.10;99.90
56137;DHT22;42008;52.934;5.884;2023-02-11T07:14:49;7.60;99.90
56137;DHT22;42008;52.934;5.884;2023-02-11T07:17:15;7.30;99.90
56137;DHT22;42008;52.934;5.884;2023-02-11T07:19:41;8.00;99.90
56137;DHT22;42008;52.934;5.884;2023-02-11T07:22:06;6.90;99.90
56137;DHT22;42008;52.934;5.884;2023-02-11T07:24:32;7.10;99.90
56137;DHT22;42008;52.934;5.884;2023-02-11T07:26:57;7.00;99.90
56137;DHT22;42008;52.934;5.884;2023-02-11T07:29:23;7.20;99.90
56137;DHT22;42008;52.934;5.884;2023-02-11T07:31:48;6.50;99.90
56137;DHT22;42008;52.934;5.884;2023-02-11T07:34:14;6.60;99.90
56137;DHT22;42008;52.934;5.884;2023-02-11T07:36:40;7.50;99.90
56137;DHT22;42008;52.934;5.884;2023-02-11T07:39:08;8.00;99.90
56137;DHT22;42008;52.934;5.884;2023-02-11T07:41:33;7.00;99.90
56137;DHT22;42008;52.934;5.884;2023-02-11T07:44:01;7.10;99.90
56137;DHT22;42008;52.934;5.884;2023-02-11T07:46:27;6.80;99.90
56137;DHT22;42008;52.934;5.884;2023-02-11T07:48:53;6.70;99.90
56137;DHT22;42008;52.934;5.884;2023-02-11T07:51:29;7.90;99.90
56137;DHT22;42008;52.934;5.884;2023-02-11T07:53:57;7.00;99.90
56137;DHT22;42008;52.934;5.884;2023-02-11T07:56:23;8.30;99.90
56137;DHT22;42008;52.934;5.884;2023-02-11T07:58:49;7.60;99.90
56137;DHT22;42008;52.934;5.884;2023-02-11T08:01:21;7.70;99.90
56137;DHT22;42008;52.934;5.884;2023-02-11T08:03:47;8.30;1.00
56137;DHT22;42008;52.934;5.884;2023-02-11T08:06:15;7.60;1.00
56137;DHT22;42008;52.934;5.884;2023-02-11T08:08:41;7.50;1.00
56137;DHT22;42008;52.934;5.884;2023-02-11T08:11:16;7.80;99.90
56137;DHT22;42008;52.934;5.884;2023-02-11T08:13:43;7.60;99.90
56137;DHT22;42008;52.934;5.884;2023-02-11T08:16:09;8.30;99.90
56137;DHT22;42008;52.934;5.884;2023-02-11T08:18:41;7.30;99.90
56137;DHT22;42008;52.934;5.884;2023-02-11T08:21:08;7.40;99.90
56137;DHT22;42008;52.934;5.884;2023-02-11T08:23:38;7.80;99.90
56137;DHT22;42008;52.934;5.884;2023-02-11T08:26:10;8.50;99.90
56137;DHT22;42008;52.934;5.884;2023-02-11T08:28:38;8.60;1.00
56137;DHT22;42008;52.934;5.884;2023-02-11T08:31:05;9.30;1.00
56137;DHT22;42008;52.934;5.884;2023-02-11T08:33:32;8.70;99.90
56137;DHT22;42008;52.934;5.884;2023-02-11T08:35:58;8.80;99.90
56137;DHT22;42008;52.934;5.884;2023-02-11T08:38:24;9.40;99.90
56137;DHT22;42008;52.934;5.884;2023-02-11T08:40:49;9.30;99.90
56137;DHT22;42008;52.934;5.884;2023-02-11T08:43:15;9.50;99.90
56137;DHT22;42008;52.934;5.884;2023-02-11T08:45:41;9.50;99.90
56137;DHT22;42008;52.934;5.884;2023-02-11T08:48:07;9.70;99.90
56137;DHT22;42008;52.934;5.884;2023-02-11T08:50:32;9.20;99.90
56137;DHT22;42008;52.934;5.884;2023-02-11T08:52:58;10.30;99.90
56137;DHT22;42008;52.934;5.884;2023-02-11T08:55:24;11.10;99.90
56137;DHT22;42008;52.934;5.884;2023-02-11T08:57:49;11.20;25.30
56137;DHT22;42008;52.934;5.884;2023-02-11T09:00:16;10.80;99.90
56137;DHT22;42008;52.934;5.884;2023-02-11T09:02:42;10.50;99.00
56137;DHT22;42008;52.934;5.884;2023-02-11T09:05:08;10.50;80.90
56137;DHT22;42008;52.934;5.884;2023-02-11T09:07:34;10.40;1.00
56137;DHT22;42008;52.934;5.884;2023-02-11T09:09:59;9.40;1.00
56137;DHT22;42008;52.934;5.884;2023-02-11T09:12:25;10.50;99.90
56137;DHT22;42008;52.934;5.884;2023-02-11T09:14:50;10.40;99.90
56137;DHT22;42008;52.934;5.884;2023-02-11T09:17:16;9.20;99.90
56137;DHT22;42008;52.934;5.884;2023-02-11T09:19:41;10.50;99.90
56137;DHT22;42008;52.934;5.884;2023-02-11T09:22:07;10.80;99.90
56137;DHT22;42008;52.934;5.884;2023-02-11T09:24:32;10.20;90.80
56137;DHT22;42008;52.934;5.884;2023-02-11T09:26:58;10.90;93.30
56137;DHT22;42008;52.934;5.884;2023-02-11T09:29:24;9.40;99.90
56137;DHT22;42008;52.934;5.884;2023-02-11T09:31:49;9.90;99.30
56137;DHT22;42008;52.934;5.884;2023-02-11T09:34:15;9.30;4.20
56137;DHT22;42008;52.934;5.884;2023-02-11T09:36:40;9.30;1.00
56137;DHT22;42008;52.934;5.884;2023-02-11T09:39:12;9.10;1.00
56137;DHT22;42008;52.934;5.884;2023-02-11T09:44:26;9.30;1.00
56137;DHT22;42008;52.934;5.884;2023-02-11T09:46:59;9.30;1.00
56137;DHT22;42008;52.934;5.884;2023-02-11T09:49:41;8.80;1.00
56137;DHT22;42008;52.934;5.884;2023-02-11T09:54:57;9.10;1.00
56137;DHT22;42008;52.934;5.884;2023-02-11T09:57:34;9.70;99.90
56137;DHT22;42008;52.934;5.884;2023-02-11T10:00:02;9.10;99.90
56137;DHT22;42008;52.934;5.884;2023-02-11T10:03:07;9.30;99.90
56137;DHT22;42008;52.934;5.884;2023-02-11T10:14:05;9.00;99.90
56137;DHT22;42008;52.934;5.884;2023-02-11T10:16:50;8.70;99.90
56137;DHT22;42008;52.934;5.884;2023-02-11T10:19:34;8.90;99.90
56137;DHT22;42008;52.934;5.884;2023-02-11T10:22:16;8.20;99.90
56137;DHT22;42008;52.934;5.884;2023-02-11T10:24:50;9.60;99.90
56137;DHT22;42008;52.934;5.884;2023-02-11T10:27:20;8.90;99.90
56137;DHT22;42008;52.934;5.884;2023-02-11T10:29:52;9.60;99.90
56137;DHT22;42008;52.934;5.884;2023-02-11T10:35:17;9.50;99.90
56137;DHT22;42008;52.934;5.884;2023-02-11T10:37:45;9.30;99.90
56137;DHT22;42008;52.934;5.884;2023-02-11T10:40:23;8.80;17.10
56137;DHT22;42008;52.934;5.884;2023-02-11T10:42:55;9.40;99.90
56137;DHT22;42008;52.934;5.884;2023-02-11T10:47:57;9.10;2.50
56137;DHT22;42008;52.934;5.884;2023-02-11T10:50:30;9.40;1.00
56137;DHT22;42008;52.934;5.884;2023-02-11T10:53:18;9.20;1.00
56137;DHT22;42008;52.934;5.884;2023-02-11T10:55:55;8.30;1.00
56137;DHT22;42008;52.934;5.884;2023-02-11T10:59:13;9.30;1.00
56137;DHT22;42008;52.934;5.884;2023-02-11T11:01:14;8.70;1.00
56137;DHT22;42008;52.934;5.884;2023-02-11T11:03:47;9.00;1.00
56137;DHT22;42008;52.934;5.884;2023-02-11T11:06:14;9.20;99.90
56137;DHT22;42008;52.934;5.884;2023-02-11T11:11:10;9.60;99.90
56137;DHT22;42008;52.934;5.884;2023-02-11T11:13:41;9.50;99.90
56137;DHT22;42008;52.934;5.884;2023-02-11T11:16:15;9.00;99.90
56137;DHT22;42008;52.934;5.884;2023-02-11T11:18:43;9.90;90.80
56137;DHT22;42008;52.934;5.884;2023-02-11T11:23:55;9.90;99.90
56137;DHT22;42008;52.934;5.884;2023-02-11T11:26:22;10.60;94.00
56137;DHT22;42008;52.934;5.884;2023-02-11T11:31:30;9.10;1.00
56137;DHT22;42008;52.934;5.884;2023-02-11T11:33:57;8.60;1.00
56137;DHT22;42008;52.934;5.884;2023-02-11T11:36:37;9.10;1.00
56137;DHT22;42008;52.934;5.884;2023-02-11T11:42:05;10.10;1.00
56137;DHT22;42008;52.934;5.884;2023-02-11T11:44:58;10.00;99.90
56137;DHT22;42008;52.934;5.884;2023-02-11T11:47:31;9.70;1.00
56137;DHT22;42008;52.934;5.884;2023-02-11T11:53:00;10.50;99.90
56137;DHT22;42008;52.934;5.884;2023-02-11T11:55:43;9.70;1.00
56137;DHT22;42008;52.934;5.884;2023-02-11T11:58:16;9.80;1.00
56137;DHT22;42008;52.934;5.884;2023-02-11T12:01:29;10.30;99.90
56137;DHT22;42008;52.934;5.884;2023-02-11T12:09:03;10.60;99.90
56137;DHT22;42008;52.934;5.884;2023-02-11T12:14:45;10.10;99.90
56137;DHT22;42008;52.934;5.884;2023-02-11T12:17:36;10.20;99.90
56137;DHT22;42008;52.934;5.884;2023-02-11T12:20:20;10.40;99.90
56137;DHT22;42008;52.934;5.884;2023-02-11T12:28:39;10.40;99.90
56137;DHT22;42008;52.934;5.884;2023-02-11T12:31:22;10.10;99.90
56137;DHT22;42008;52.934;5.884;2023-02-11T12:47:59;10.20;99.90
56137;DHT22;42008;52.934;5.884;2023-02-11T12:50:51;10.10;99.90
56137;DHT22;42008;52.934;5.884;2023-02-11T12:56:05;10.40;99.90
56137;DHT22;42008;52.934;5.884;2023-02-11T12:58:37;9.90;65.40
56137;DHT22;42008;52.934;5.884;2023-02-11T13:01:13;9.70;99.90
56137;DHT22;42008;52.934;5.884;2023-02-11T13:03:48;9.80;99.90
56137;DHT22;42008;52.934;5.884;2023-02-11T13:06:38;9.10;99.90
56137;DHT22;42008;52.934;5.884;2023-02-11T13:09:17;10.60;99.90
56137;DHT22;42008;52.934;5.884;2023-02-11T13:11:48;9.90;99.90
56137;DHT22;42008;52.934;5.884;2023-02-11T13:16:51;8.80;99.90
56137;DHT22;42008;52.934;5.884;2023-02-11T13:19:31;10.40;99.90
56137;DHT22;42008;52.934;5.884;2023-02-11T13:22:06;10.30;99.90
56137;DHT22;42008;52.934;5.884;2023-02-11T13:27:18;10.60;99.90
56137;DHT22;42008;52.934;5.884;2023-02-11T13:37:56;10.00;99.90
56137;DHT22;42008;52.934;5.884;2023-02-11T13:40:30;8.80;99.90
56137;DHT22;42008;52.934;5.884;2023-02-11T13:42:58;8.90;99.90
56137;DHT22;42008;52.934;5.884;2023-02-11T13:45:46;9.50;99.90
56137;DHT22;42008;52.934;5.884;2023-02-11T13:50:53;9.70;99.90
56137;DHT22;42008;52.934;5.884;2023-02-11T13:53:20;9.50;99.90
56137;DHT22;42008;52.934;5.884;2023-02-11T13:55:49;8.90;99.90
56137;DHT22;42008;52.934;5.884;2023-02-11T13:58:33;9.00;99.90
56137;DHT22;42008;52.934;5.884;2023-02-11T14:01:02;9.50;99.90
56137;DHT22;42008;52.934;5.884;2023-02-11T14:03:35;9.60;99.90
56137;DHT22;42008;52.934;5.884;2023-02-11T14:06:22;9.60;99.90
56137;DHT22;42008;52.934;5.884;2023-02-11T14:11:46;9.30;99.90
56137;DHT22;42008;52.934;5.884;2023-02-11T14:22:05;9.60;99.90
56137;DHT22;42008;52.934;5.884;2023-02-11T14:32:51;9.90;99.90
56137;DHT22;42008;52.934;5.884;2023-02-11T14:38:23;10.20;1.00
56137;DHT22;42008;52.934;5.884;2023-02-11T14:43:29;10.00;99.90
56137;DHT22;42008;52.934;5.884;2023-02-11T14:45:57;9.60;99.90
56137;DHT22;42008;52.934;5.884;2023-02-11T14:48:30;9.30;1.00
56137;DHT22;42008;52.934;5.884;2023-02-11T14:51:32;9.40;1.00
56137;DHT22;42008;52.934;5.884;2023-02-11T14:54:11;10.00;99.90
56137;DHT22;42008;52.934;5.884;2023-02-11T14:56:39;8.60;99.90
56137;DHT22;42008;52.934;5.884;2023-02-11T14:59:18;9.40;1.00
56137;DHT22;42008;52.934;5.884;2023-02-11T15:01:49;9.10;1.00
56137;DHT22;42008;52.934;5.884;2023-02-11T15:04:26;9.10;1.00
56137;DHT22;42008;52.934;5.884;2023-02-11T15:06:53;8.90;1.00
56137;DHT22;42008;52.934;5.884;2023-02-11T15:09:47;9.10;99.90
56137;DHT22;42008;52.934;5.884;2023-02-11T15:12:25;8.60;1.00
56137;DHT22;42008;52.934;5.884;2023-02-11T15:14:55;9.10;36.60
56137;DHT22;42008;52.934;5.884;2023-02-11T15:17:25;9.00;99.90
56137;DHT22;42008;52.934;5.884;2023-02-11T15:19:54;9.00;99.90
56137;DHT22;42008;52.934;5.884;2023-02-11T15:22:21;9.00;81.70
56137;DHT22;42008;52.934;5.884;2023-02-11T15:27:45;8.40;67.80
56137;DHT22;42008;52.934;5.884;2023-02-11T15:32:50;9.70;99.90
56137;DHT22;42008;52.934;5.884;2023-02-11T15:35:17;9.40;99.90
56137;DHT22;42008;52.934;5.884;2023-02-11T15:37:43;8.80;99.90
56137;DHT22;42008;52.934;5.884;2023-02-11T15:40:13;9.20;99.90
56137;DHT22;42008;52.934;5.884;2023-02-11T15:42:39;9.50;99.90
56137;DHT22;42008;52.934;5.884;2023-02-11T15:47:39;9.50;99.90
56137;DHT22;42008;52.934;5.884;2023-02-11T15:50:15;8.90;1.00
56137;DHT22;42008;52.934;5.884;2023-02-11T15:52:45;8.20;1.00
56137;DHT22;42008;52.934;5.884;2023-02-11T15:55:12;8.70;1.00
56137;DHT22;42008;52.934;5.884;2023-02-11T15:57:43;8.40;99.90
56137;DHT22;42008;52.934;5.884;2023-02-11T16:00:18;8.70;99.90
56137;DHT22;42008;52.934;5.884;2023-02-11T16:02:44;8.70;99.90
56137;DHT22;42008;52.934;5.884;2023-02-11T16:05:28;9.40;99.90
56137;DHT22;42008;52.934;5.884;2023-02-11T16:07:54;9.70;99.90
56137;DHT22;42008;52.934;5.884;2023-02-11T16:10:32;8.70;99.90
56137;DHT22;42008;52.934;5.884;2023-02-11T16:20:54;8.70;1.00
56137;DHT22;42008;52.934;5.884;2023-02-11T16:23:26;8.50;1.00
56137;DHT22;42008;52.934;5.884;2023-02-11T16:26:26;8.90;1.00
56137;DHT22;42008;52.934;5.884;2023-02-11T16:28:50;8.80;1.00
56137;DHT22;42008;52.934;5.884;2023-02-11T16:31:16;8.90;1.00
56137;DHT22;42008;52.934;5.884;2023-02-11T16:33:42;8.90;1.00
56137;DHT22;42008;52.934;5.884;2023-02-11T16:36:13;9.00;1.00
56137;DHT22;42008;52.934;5.884;2023-02-11T16:38:39;8.30;1.00
56137;DHT22;42008;52.934;5.884;2023-02-11T16:41:04;8.70;2.40
56137;DHT22;42008;52.934;5.884;2023-02-11T16:43:30;8.90;73.30
56137;DHT22;42008;52.934;5.884;2023-02-11T16:45:57;8.30;99.20
56137;DHT22;42008;52.934;5.884;2023-02-11T16:48:23;7.60;99.90
56137;DHT22;42008;52.934;5.884;2023-02-11T16:50:49;8.60;99.90
56137;DHT22;42008;52.934;5.884;2023-02-11T16:53:17;9.10;99.90
56137;DHT22;42008;52.934;5.884;2023-02-11T16:55:44;9.00;99.90
56137;DHT22;42008;52.934;5.884;2023-02-11T16:58:09;9.10;99.90
56137;DHT22;42008;52.934;5.884;2023-02-11T17:00:35;7.50;99.90
56137;DHT22;42008;52.934;5.884;2023-02-11T17:03:05;7.60;99.90
56137;DHT22;42008;52.934;5.884;2023-02-11T17:05:31;8.70;99.90
56137;DHT22;42008;52.934;5.884;2023-02-11T17:07:56;8.80;99.90
56137;DHT22;42008;52.934;5.884;2023-02-11T17:10:22;8.40;99.90
56137;DHT22;42008;52.934;5.884;2023-02-11T17:12:49;8.90;99.90
56137;DHT22;42008;52.934;5.884;2023-02-11T17:15:15;8.50;1.00
56137;DHT22;42008;52.934;5.884;2023-02-11T17:17:41;7.90;1.00
56137;DHT22;42008;52.934;5.884;2023-02-11T17:20:09;7.50;1.00
56137;DHT22;42008;52.934;5.884;2023-02-11T17:22:35;8.30;1.00
56137;DHT22;42008;52.934;5.884;2023-02-11T17:25:00;7.30;1.00
56137;DHT22;42008;52.934;5.884;2023-02-11T17:27:26;7.40;1.00
56137;DHT22;42008;52.934;5.884;2023-02-11T17:29:51;7.50;1.00
56137;DHT22;42008;52.934;5.884;2023-02-11T17:32:17;8.00;1.00
56137;DHT22;42008;52.934;5.884;2023-02-11T17:34:43;8.50;1.00
56137;DHT22;42008;52.934;5.884;2023-02-11T17:37:08;7.50;1.00
56137;DHT22;42008;52.934;5.884;2023-02-11T17:39:38;7.40;1.00
56137;DHT22;42008;52.934;5.884;2023-02-11T17:42:05;8.40;1.00
56137;DHT22;42008;52.934;5.884;2023-02-11T17:44:31;7.80;1.00
56137;DHT22;42008;52.934;5.884;2023-02-11T17:46:57;7.40;11.00
56137;DHT22;42008;52.934;5.884;2023-02-11T17:49:23;7.40;1.00
56137;DHT22;42008;52.934;5.884;2023-02-11T17:51:48;7.90;1.00
56137;DHT22;42008;52.934;5.884;2023-02-11T17:54:16;7.40;1.00
56137;DHT22;42008;52.934;5.884;2023-02-11T17:56:43;8.30;40.20
56137;DHT22;42008;52.934;5.884;2023-02-11T17:59:10;8.00;17.40
56137;DHT22;42008;52.934;5.884;2023-02-11T18:01:38;7.20;51.30
56137;DHT22;42008;52.934;5.884;2023-02-11T18:04:05;7.00;29.50
56137;DHT22;42008;52.934;5.884;2023-02-11T18:06:32;7.90;50.60
56137;DHT22;42008;52.934;5.884;2023-02-11T18:09:01;7.60;63.10
56137;DHT22;42008;52.934;5.884;2023-02-11T18:11:29;7.70;52.90
56137;DHT22;42008;52.934;5.884;2023-02-11T18:13:57;7.90;25.00
56137;DHT22;42008;52.934;5.884;2023-02-11T18:16:24;8.60;9.10
56137;DHT22;42008;52.934;5.884;2023-02-11T18:18:52;7.30;35.80
56137;DHT22;42008;52.934;5.884;2023-02-11T18:21:19;7.50;34.60
56137;DHT22;42008;52.934;5.884;2023-02-11T18:23:45;7.50;56.80
56137;DHT22;42008;52.934;5.884;2023-02-11T18:26:12;7.60;55.00
56137;DHT22;42008;52.934;5.884;2023-02-11T18:28:38;7.60;54.90
56137;DHT22;42008;52.934;5.884;2023-02-11T18:31:06;7.50;93.60